createdAt,value
2022-09-04T00:00:07.412Z,55.32
2022-09-04T00:05:17.275Z,55.25
2022-09-04T00:10:28.406Z,55.06
2022-09-04T00:15:36.617Z,55.41
2022-09-04T00:20:42.770Z,55.05
2022-09-04T00:25:56.857Z,55.73
2022-09-04T00:31:12.371Z,56.35
2022-09-04T00:36:17.367Z,55.63
2022-09-04T00:41:27.961Z,55.81
2022-09-04T00:46:59.072Z,55.64
2022-09-04T00:52:06.617Z,56.06
2022-09-04T00:57:48.471Z,56.30
2022-09-04T01:03:35.200Z,56.55
2022-09-04T01:08:56.069Z,56.43
2022-09-04T01:14:08.787Z,56.94
2022-09-04T01:19:25.035Z,56.55
2022-09-04T01:24:52.242Z,57.11
2022-09-04T01:30:03.038Z,57.69
2022-09-04T01:35:14.986Z,58.00
2022-09-04T01:40:35.776Z,58.19
2022-09-04T01:46:02.749Z,58.19
2022-09-04T01:51:14.761Z,58.45
2022-09-04T01:56:21.661Z,58.91
2022-09-04T02:01:33.194Z,59.04
2022-09-04T02:06:47.522Z,59.29
2022-09-04T02:11:59.259Z,58.98
2022-09-04T02:17:10.375Z,59.68
2022-09-04T02:22:24.500Z,59.63
2022-09-04T02:27:35.346Z,59.93
2022-09-04T02:32:44.814Z,59.58
2022-09-04T02:38:00.842Z,60.17
2022-09-04T02:43:22.358Z,60.28
2022-09-04T02:48:33.884Z,60.48
2022-09-04T02:53:46.194Z,60.91
2022-09-04T02:59:03.760Z,61.24
2022-09-04T03:04:15.403Z,61.46
2022-09-04T03:09:22.256Z,61.31
2022-09-04T03:14:33.020Z,61.26
2022-09-04T03:19:45.003Z,61.38
2022-09-04T03:25:06.603Z,61.87
2022-09-04T03:30:11.637Z,61.41
2022-09-04T03:35:23.042Z,60.67
2022-09-04T03:40:36.442Z,60.39
2022-09-04T03:45:49.002Z,60.10
2022-09-04T03:50:58.016Z,60.18
2022-09-04T03:56:27.696Z,59.55
2022-09-04T04:01:41.810Z,60.20
2022-09-04T04:06:52.736Z,60.30
2022-09-04T04:12:21.279Z,59.86
2022-09-04T04:17:55.235Z,60.05
2022-09-04T04:23:27.626Z,60.15
2022-09-04T04:28:49.496Z,60.29
2022-09-04T04:34:02.804Z,60.02
2022-09-04T04:39:19.653Z,59.95
2022-09-04T04:44:27.058Z,60.09
2022-09-04T04:49:44.289Z,60.05
2022-09-04T04:55:00.807Z,59.67
2022-09-04T05:00:10.555Z,60.30
2022-09-04T05:05:18.620Z,59.94
2022-09-04T05:10:30.166Z,60.00
2022-09-04T05:15:58.182Z,59.81
2022-09-04T05:21:08.814Z,59.63
2022-09-04T05:26:21.519Z,59.70
2022-09-04T05:31:33.723Z,57.28
2022-09-04T05:36:50.448Z,58.42
2022-09-04T05:42:09.518Z,56.89
2022-09-04T05:47:28.633Z,51.88
2022-09-04T05:52:52.960Z,48.58
2022-09-04T05:58:08.289Z,49.18
2022-09-04T06:03:30.227Z,47.38
2022-09-04T06:08:45.366Z,49.75
2022-09-04T06:14:01.321Z,52.65
2022-09-04T06:19:26.073Z,54.27
2022-09-04T06:24:52.233Z,54.97
2022-09-04T06:30:07.116Z,54.97
2022-09-04T06:35:19.665Z,55.61
2022-09-04T06:40:41.542Z,55.59
2022-09-04T06:46:02.302Z,55.60
2022-09-04T06:51:18.122Z,55.58
2022-09-04T06:56:45.938Z,55.57
2022-09-04T07:02:00.282Z,55.86
2022-09-04T07:07:11.536Z,56.44
2022-09-04T07:12:33.581Z,55.71
2022-09-04T07:17:42.414Z,56.01
2022-09-04T07:23:06.307Z,55.39
2022-09-04T07:28:19.104Z,55.10
2022-09-04T07:33:32.907Z,54.62
2022-09-04T07:38:42.130Z,53.36
2022-09-04T07:43:54.972Z,52.33
2022-09-04T07:49:04.726Z,52.39
2022-09-04T07:54:40.079Z,52.63
2022-09-04T08:00:01.861Z,51.23
2022-09-04T08:05:22.169Z,49.94
2022-09-04T08:10:31.904Z,49.49
2022-09-04T08:15:42.906Z,49.83
2022-09-04T08:20:55.579Z,49.48
2022-09-04T08:26:09.658Z,48.92
2022-09-04T08:31:21.042Z,49.61
2022-09-04T08:36:33.178Z,47.33
2022-09-04T08:42:14.747Z,49.17
2022-09-04T08:47:47.500Z,48.02
2022-09-04T08:53:29.703Z,47.35
2022-09-04T08:59:09.642Z,47.92
2022-09-04T09:04:34.175Z,47.57
2022-09-04T09:10:09.078Z,47.95
2022-09-04T09:15:33.401Z,47.86
2022-09-04T09:20:47.209Z,42.67
2022-09-04T09:26:01.777Z,39.32
2022-09-04T09:31:32.246Z,37.26
2022-09-04T09:36:52.364Z,35.16
2022-09-04T09:42:38.178Z,36.06
2022-09-04T09:48:11.646Z,34.19
2022-09-04T09:53:53.196Z,34.00
2022-09-04T09:59:34.486Z,32.42
2022-09-04T10:04:57.514Z,31.52
2022-09-04T10:10:23.513Z,30.95
2022-09-04T10:15:45.255Z,31.41
2022-09-04T10:21:18.739Z,30.48
2022-09-04T10:26:51.963Z,30.76
2022-09-04T10:32:38.901Z,34.59
2022-09-04T10:38:15.284Z,34.72
2022-09-04T10:43:39.055Z,29.58
2022-09-04T10:48:56.688Z,29.19
2022-09-04T10:54:19.940Z,30.75
2022-09-04T10:59:57.012Z,32.91
2022-09-04T11:05:31.473Z,32.52
2022-09-04T11:10:46.122Z,33.87
2022-09-04T11:16:10.344Z,34.59
2022-09-04T11:21:42.834Z,33.62
2022-09-04T11:27:10.016Z,34.29
2022-09-04T11:32:26.020Z,36.15
2022-09-04T11:37:55.773Z,35.60
2022-09-04T11:43:14.848Z,35.68
2022-09-04T11:48:43.928Z,36.15
2022-09-04T11:54:08.447Z,35.97
2022-09-04T11:59:40.014Z,37.09
2022-09-04T12:05:00.013Z,35.57
2022-09-04T12:10:29.609Z,35.33
2022-09-04T12:16:11.503Z,35.94
2022-09-04T12:21:36.137Z,33.99
2022-09-04T12:27:02.207Z,34.65
2022-09-04T12:32:43.613Z,34.24
2022-09-04T12:38:08.519Z,34.45
2022-09-04T12:43:22.864Z,34.70
2022-09-04T12:48:35.827Z,35.09
2022-09-04T12:54:03.775Z,33.83
2022-09-04T12:59:22.887Z,33.54
2022-09-04T13:04:33.613Z,34.99
2022-09-04T13:09:53.311Z,33.43
2022-09-04T13:15:20.564Z,33.46
2022-09-04T13:20:32.062Z,33.43
2022-09-04T13:25:48.752Z,33.69
2022-09-04T13:30:56.535Z,32.65
2022-09-04T13:36:17.848Z,33.32
2022-09-04T13:41:45.956Z,33.68
2022-09-04T13:46:53.339Z,33.60
2022-09-04T13:52:05.675Z,33.46
2022-09-04T13:57:15.053Z,34.00
2022-09-04T14:02:20.911Z,33.74
2022-09-04T14:07:26.795Z,33.31
2022-09-04T14:12:54.803Z,34.29
2022-09-04T14:18:08.583Z,33.82
2022-09-04T14:23:22.634Z,33.81
2022-09-04T14:28:31.864Z,34.13
2022-09-04T14:33:44.428Z,33.85
2022-09-04T14:39:05.301Z,33.58
2022-09-04T14:44:20.779Z,34.01
2022-09-04T14:49:25.779Z,34.52
2022-09-04T14:54:33.427Z,34.13
2022-09-04T14:59:38.844Z,33.79
2022-09-04T15:04:45.895Z,33.95
2022-09-04T15:09:50.943Z,34.42
2022-09-04T15:15:03.655Z,34.19
2022-09-04T15:20:11.940Z,34.34
2022-09-04T15:25:58.362Z,35.17
2022-09-04T15:31:14.709Z,35.03
2022-09-04T15:36:22.558Z,35.94
2022-09-04T15:41:35.726Z,35.36
2022-09-04T15:46:45.639Z,35.93
2022-09-04T15:51:52.479Z,35.74
2022-09-04T15:57:04.362Z,36.70
2022-09-04T16:02:22.408Z,37.61
2022-09-04T16:07:33.893Z,36.86
2022-09-04T16:12:41.567Z,37.48
2022-09-04T16:17:50.678Z,38.01
2022-09-04T16:22:55.710Z,38.56
2022-09-04T16:28:02.768Z,38.49
2022-09-04T16:33:20.476Z,38.89
2022-09-04T16:38:34.287Z,38.97
2022-09-04T16:43:37.670Z,40.51
2022-09-04T16:48:47.405Z,40.44
2022-09-04T16:53:52.914Z,40.25
2022-09-04T16:59:09.470Z,41.15
2022-09-04T17:04:27.248Z,42.63
2022-09-04T17:09:42.948Z,43.40
2022-09-04T17:14:52.300Z,44.29
2022-09-04T17:20:06.551Z,43.88
2022-09-04T17:29:01.821Z,45.15
2022-09-04T17:30:48.179Z,46.69
2022-09-04T17:40:37.076Z,47.44
2022-09-04T17:41:40.761Z,47.97
2022-09-04T17:46:57.819Z,50.06
2022-09-04T17:52:03.047Z,49.42
2022-09-04T17:57:11.876Z,49.96
2022-09-04T18:02:19.553Z,50.87
2022-09-04T18:08:06.942Z,51.71
2022-09-04T18:12:58.582Z,53.32
2022-09-04T18:18:11.312Z,54.50
2022-09-04T18:23:51.523Z,54.76
2022-09-04T18:29:04.141Z,56.58
2022-09-04T18:37:25.323Z,56.28
2022-09-04T18:40:05.069Z,56.59
2022-09-04T18:50:24.179Z,58.07
2022-09-04T18:56:06.722Z,58.76
2022-09-04T19:01:29.206Z,59.43
2022-09-04T19:06:36.567Z,59.83
2022-09-04T19:11:45.219Z,60.21
2022-09-04T19:16:52.242Z,59.83
2022-09-04T19:22:01.670Z,61.07
2022-09-04T19:27:28.183Z,58.85
2022-09-04T19:32:37.371Z,58.72
2022-09-04T19:40:13.771Z,58.35
2022-09-04T19:46:14.379Z,57.99
2022-09-04T19:50:26.048Z,59.30
2022-09-04T19:54:14.643Z,57.67
2022-09-04T19:59:22.991Z,57.97
2022-09-04T20:04:34.664Z,58.03
2022-09-04T20:09:46.619Z,58.17
2022-09-04T20:14:54.996Z,59.05
2022-09-04T20:20:01.313Z,58.78
2022-09-04T20:25:26.444Z,58.37
2022-09-04T20:30:30.331Z,58.32
2022-09-04T20:35:38.093Z,58.26
2022-09-04T20:40:46.273Z,58.15
2022-09-04T20:50:25.876Z,57.88
2022-09-04T20:53:05.797Z,58.36
2022-09-04T20:59:21.015Z,58.59
2022-09-04T21:03:22.395Z,58.42
2022-09-04T21:08:06.314Z,59.64
2022-09-04T21:13:17.025Z,59.46
2022-09-04T21:18:54.948Z,59.96
2022-09-04T21:24:31.390Z,61.88
2022-09-04T21:30:05.204Z,61.28
2022-09-04T21:35:15.697Z,61.47
2022-09-04T21:40:51.251Z,62.10
2022-09-04T21:46:13.212Z,61.94
2022-09-04T21:51:33.966Z,62.21
2022-09-04T22:02:28.663Z,62.50
2022-09-04T22:03:01.992Z,62.02
2022-09-04T22:13:27.391Z,61.93
2022-09-04T22:13:51.068Z,62.10
2022-09-04T22:19:30.140Z,63.10
2022-09-04T22:25:06.012Z,64.23
2022-09-04T22:30:10.125Z,63.93
2022-09-04T22:36:02.731Z,65.27
2022-09-04T22:41:33.558Z,64.17
2022-09-04T22:47:05.327Z,62.92
2022-09-04T22:58:25.652Z,63.73
2022-09-04T23:03:45.849Z,63.11
2022-09-04T23:13:49.102Z,62.90
2022-09-04T23:14:47.959Z,62.81
2022-09-04T23:26:36.460Z,62.26
2022-09-04T23:26:57.258Z,62.12
2022-09-04T23:31:29.157Z,61.85
2022-09-04T23:37:13.864Z,60.84
2022-09-04T23:42:39.022Z,60.82
2022-09-04T23:48:17.469Z,60.33
2022-09-04T23:53:29.761Z,59.82
2022-09-04T23:58:49.399Z,59.10
